Time;durP1;ratioP1;P1;durP2;ratioP2;P2;SDS_P1;SDS_P2;PMS_P1;PMS_P2;Temp;Humidity;BMP_temperature;BMP_pressure;BME280_temperature;BME280_humidity;BME280_pressure;Samples;Min_cycle;Max_cycle;Signal;HPM_P1;HPM_P2
2024/02/29 00:01:50;;;;;;;34.83;24.63;;;;;;;;;;5037562;28;20749;-81
2024/02/29 00:04:16;;;;;;;32.00;23.98;;;;;;;;;;5037778;28;20379;-81
2024/02/29 00:06:42;;;;;;;36.65;24.90;;;;;;;;;;5037752;28;21083;-82
2024/02/29 00:09:08;;;;;;;35.92;24.42;;;;;;;;;;5038022;28;20426;-81
2024/02/29 00:11:34;;;;;;;38.45;25.02;;;;;;;;;;5038181;28;20403;-82
2024/02/29 00:14:00;;;;;;;36.20;24.52;;;;;;;;;;5037755;28;20725;-82
2024/02/29 00:16:26;;;;;;;36.10;25.50;;;;;;;;;;5037449;28;20462;-81
2024/02/29 00:18:52;;;;;;;35.40;24.02;;;;;;;;;;5037259;28;20411;-81
2024/02/29 00:21:18;;;;;;;34.97;24.80;;;;;;;;;;5037537;28;20390;-82
2024/02/29 00:23:44;;;;;;;32.65;23.20;;;;;;;;;;5036836;28;20391;-81
2024/02/29 00:26:14;;;;;;;35.70;23.85;;;;;;;;;;5036489;28;20458;-82
2024/02/29 00:28:40;;;;;;;37.22;24.65;;;;;;;;;;5037261;28;20383;-82
2024/02/29 00:31:06;;;;;;;32.97;23.77;;;;;;;;;;5037221;28;20395;-81
2024/02/29 00:33:32;;;;;;;36.33;24.67;;;;;;;;;;5037432;28;20387;-82
2024/02/29 00:35:58;;;;;;;34.50;23.45;;;;;;;;;;5037251;28;20383;-81
2024/02/29 00:38:25;;;;;;;34.97;24.52;;;;;;;;;;5036932;28;20415;-81
2024/02/29 00:40:52;;;;;;;36.40;24.58;;;;;;;;;;5036013;28;21483;-81
2024/02/29 00:43:18;;;;;;;36.40;25.20;;;;;;;;;;5036839;28;20841;-81
2024/02/29 00:45:44;;;;;;;34.83;24.10;;;;;;;;;;5037401;28;20480;-81
2024/02/29 00:48:10;;;;;;;36.15;25.13;;;;;;;;;;5036984;28;20398;-81
2024/02/29 00:50:36;;;;;;;32.50;23.83;;;;;;;;;;5036720;28;20422;-82
2024/02/29 00:53:02;;;;;;;34.13;24.33;;;;;;;;;;5037010;28;20386;-81
2024/02/29 00:55:28;;;;;;;36.63;24.50;;;;;;;;;;5036719;28;20380;-81
2024/02/29 00:57:54;;;;;;;34.22;23.73;;;;;;;;;;5036441;28;20418;-81
2024/02/29 01:00:21;;;;;;;34.70;24.63;;;;;;;;;;5036822;28;20394;-81
2024/02/29 01:02:47;;;;;;;34.03;24.45;;;;;;;;;;5039055;28;20387;-81
2024/02/29 01:05:14;;;;;;;35.10;23.48;;;;;;;;;;5036312;28;20379;-81
2024/02/29 01:07:40;;;;;;;34.50;24.35;;;;;;;;;;5035980;28;20411;-81
2024/02/29 01:10:14;;;;;;;36.83;23.87;;;;;;;;;;5036388;28;20992;-81
2024/02/29 01:12:44;;;;;;;36.60;23.88;;;;;;;;;;5036291;28;20777;-81
2024/02/29 01:15:10;;;;;;;32.63;23.07;;;;;;;;;;5036554;28;20390;-81
2024/02/29 01:17:36;;;;;;;35.75;24.52;;;;;;;;;;5036642;28;20487;-81
2024/02/29 01:20:04;;;;;;;36.58;24.85;;;;;;;;;;5036583;28;20378;-81
2024/02/29 01:22:31;;;;;;;33.25;24.13;;;;;;;;;;5036500;28;20383;-81
2024/02/29 01:24:57;;;;;;;33.85;23.58;;;;;;;;;;5036775;28;20730;-82
2024/02/29 01:27:23;;;;;;;33.42;23.67;;;;;;;;;;5036629;28;20394;-82
2024/02/29 01:29:49;;;;;;;38.90;26.73;;;;;;;;;;5036209;28;20414;-82
2024/02/29 01:32:15;;;;;;;133.95;64.65;;;;;;;;;;5036145;28;20397;-81
2024/02/29 01:34:41;;;;;;;48.97;29.10;;;;;;;;;;5036097;28;20387;-82
2024/02/29 01:37:07;;;;;;;33.97;24.17;;;;;;;;;;5034027;28;20445;-81
2024/02/29 01:39:33;;;;;;;30.88;22.75;;;;;;;;;;5035391;28;20433;-82
2024/02/29 01:41:59;;;;;;;35.40;24.55;;;;;;;;;;5035816;28;20371;-81
2024/02/29 01:44:27;;;;;;;31.83;22.88;;;;;;;;;;5036008;28;20889;-81
2024/02/29 01:46:53;;;;;;;36.60;24.33;;;;;;;;;;5036001;28;20932;-81
2024/02/29 01:49:19;;;;;;;37.53;24.95;;;;;;;;;;5035715;28;20449;-81
2024/02/29 01:51:45;;;;;;;38.20;23.85;;;;;;;;;;5035230;28;20434;-81
2024/02/29 01:54:11;;;;;;;33.40;23.10;;;;;;;;;;5035772;28;20850;-82
2024/02/29 01:56:38;;;;;;;33.85;23.30;;;;;;;;;;5035724;28;20387;-82
2024/02/29 01:59:05;;;;;;;35.17;24.20;;;;;;;;;;5049092;28;20489;-81
2024/02/29 02:01:31;;;;;;;33.60;23.20;;;;;;;;;;5055307;28;20443;-81
2024/02/29 02:03:57;;;;;;;35.63;24.63;;;;;;;;;;5055331;28;20389;-81
2024/02/29 02:06:23;;;;;;;32.47;23.48;;;;;;;;;;5055300;28;20441;-81
2024/02/29 02:08:49;;;;;;;34.67;24.20;;;;;;;;;;5054794;28;20384;-82
2024/02/29 02:11:15;;;;;;;33.88;23.70;;;;;;;;;;5055724;28;20397;-81
2024/02/29 02:13:41;;;;;;;36.30;24.63;;;;;;;;;;5055775;28;20381;-82
2024/02/29 02:16:11;;;;;;;34.05;23.27;;;;;;;;;;5055146;28;20381;-81
2024/02/29 02:18:37;;;;;;;34.20;23.08;;;;;;;;;;5054803;28;20930;-81
2024/02/29 02:21:04;;;;;;;33.30;22.63;;;;;;;;;;5054998;28;20403;-82
2024/02/29 02:23:30;;;;;;;33.80;23.33;;;;;;;;;;5055040;28;20851;-82
2024/02/29 02:26:00;;;;;;;31.70;22.75;;;;;;;;;;5055476;28;20388;-81
2024/02/29 02:28:26;;;;;;;34.45;23.45;;;;;;;;;;5054764;28;20396;-82
2024/02/29 02:30:52;;;;;;;33.05;22.67;;;;;;;;;;5055785;28;20381;-82
2024/02/29 02:33:19;;;;;;;35.55;23.67;;;;;;;;;;5056216;28;20395;-81
2024/02/29 02:35:45;;;;;;;37.85;23.67;;;;;;;;;;5055668;28;20381;-82
2024/02/29 02:38:11;;;;;;;35.95;23.60;;;;;;;;;;5055209;28;20436;-82
2024/02/29 02:40:37;;;;;;;33.00;23.50;;;;;;;;;;5055814;28;20377;-82
2024/02/29 02:43:03;;;;;;;29.92;22.20;;;;;;;;;;5055618;28;20838;-82
2024/02/29 02:45:29;;;;;;;33.60;23.05;;;;;;;;;;5055869;28;20455;-81
2024/02/29 02:47:55;;;;;;;33.90;22.77;;;;;;;;;;5054808;28;20408;-81
2024/02/29 02:50:22;;;;;;;35.00;22.77;;;;;;;;;;5058600;28;20400;-82
2024/02/29 02:52:48;;;;;;;33.67;23.55;;;;;;;;;;5058918;28;20395;-80
2024/02/29 02:55:14;;;;;;;32.75;22.75;;;;;;;;;;5058465;28;20385;-81
2024/02/29 02:57:40;;;;;;;33.27;23.07;;;;;;;;;;5054727;28;20487;-82
2024/02/29 03:00:10;;;;;;;31.92;23.30;;;;;;;;;;5059129;28;20835;-81
2024/02/29 03:02:39;;;;;;;32.00;23.08;;;;;;;;;;5058627;28;20392;-81
2024/02/29 03:05:05;;;;;;;37.78;24.70;;;;;;;;;;5058594;28;20457;-82
2024/02/29 03:07:31;;;;;;;35.10;23.58;;;;;;;;;;5058432;28;20374;-82
2024/02/29 03:09:57;;;;;;;34.00;22.63;;;;;;;;;;5058365;28;20756;-81
2024/02/29 03:12:23;;;;;;;35.15;22.98;;;;;;;;;;5058910;28;20381;-81
2024/02/29 03:14:49;;;;;;;36.13;23.20;;;;;;;;;;5058729;28;20385;-81
2024/02/29 03:17:15;;;;;;;37.37;24.17;;;;;;;;;;5058350;28;20405;-81
2024/02/29 03:19:42;;;;;;;34.22;23.35;;;;;;;;;;5058262;28;20727;-81
2024/02/29 03:22:08;;;;;;;32.30;22.53;;;;;;;;;;5058651;28;20398;-81
2024/02/29 03:24:39;;;;;;;34.58;23.15;;;;;;;;;;5058484;28;20452;-81
2024/02/29 03:27:05;;;;;;;34.22;24.08;;;;;;;;;;5059053;28;20374;-81
2024/02/29 03:29:31;;;;;;;32.65;23.60;;;;;;;;;;5058346;28;20479;-81
2024/02/29 03:31:57;;;;;;;30.87;22.57;;;;;;;;;;5058177;28;20385;-81
2024/02/29 03:34:23;;;;;;;34.83;23.10;;;;;;;;;;5058234;28;20383;-81
2024/02/29 03:36:49;;;;;;;34.33;22.98;;;;;;;;;;5057682;28;20441;-81
2024/02/29 03:39:15;;;;;;;35.80;23.13;;;;;;;;;;5058014;28;20377;-81
2024/02/29 03:41:41;;;;;;;35.63;23.90;;;;;;;;;;5058332;28;20435;-81
2024/02/29 03:44:07;;;;;;;32.67;23.25;;;;;;;;;;5058038;28;20460;-81
2024/02/29 03:46:33;;;;;;;34.97;23.05;;;;;;;;;;5057607;28;20428;-81
2024/02/29 03:48:59;;;;;;;35.30;23.37;;;;;;;;;;5057831;28;20401;-81
2024/02/29 03:51:26;;;;;;;34.15;23.63;;;;;;;;;;5057791;28;20385;-82
2024/02/29 03:53:52;;;;;;;34.15;23.27;;;;;;;;;;5058253;28;20393;-81
2024/02/29 03:56:18;;;;;;;34.88;24.27;;;;;;;;;;5058065;28;20377;-81
2024/02/29 03:58:44;;;;;;;35.65;23.45;;;;;;;;;;5057571;28;20417;-81
2024/02/29 04:01:10;;;;;;;33.63;23.55;;;;;;;;;;5056198;28;20855;-81
2024/02/29 04:03:38;;;;;;;35.00;23.63;;;;;;;;;;5057169;28;20388;-81
2024/02/29 04:06:05;;;;;;;31.37;22.53;;;;;;;;;;5057492;28;20926;-81
2024/02/29 04:08:31;;;;;;;33.92;23.88;;;;;;;;;;5044735;28;20414;-81
2024/02/29 04:10:57;;;;;;;35.67;23.52;;;;;;;;;;5037467;28;20482;-82
2024/02/29 04:13:23;;;;;;;36.17;23.45;;;;;;;;;;5036997;28;20888;-81
2024/02/29 04:15:49;;;;;;;33.15;23.60;;;;;;;;;;5037044;28;20383;-81
2024/02/29 04:18:15;;;;;;;33.80;22.33;;;;;;;;;;5037552;28;20403;-82
2024/02/29 04:20:41;;;;;;;31.75;23.13;;;;;;;;;;5036884;28;20798;-81
2024/02/29 04:23:07;;;;;;;34.75;23.45;;;;;;;;;;5036659;28;20382;-82
2024/02/29 04:25:33;;;;;;;34.92;23.65;;;;;;;;;;5037421;28;20409;-81
2024/02/29 04:27:59;;;;;;;36.22;24.10;;;;;;;;;;5037588;28;20379;-81
2024/02/29 04:30:25;;;;;;;35.17;23.27;;;;;;;;;;5037232;28;20383;-82
2024/02/29 04:32:51;;;;;;;33.63;23.10;;;;;;;;;;5037201;28;20391;-82
2024/02/29 04:35:17;;;;;;;34.50;22.75;;;;;;;;;;5036990;28;20401;-82
2024/02/29 04:37:43;;;;;;;34.92;23.88;;;;;;;;;;5037127;28;20520;-82
2024/02/29 04:40:11;;;;;;;35.08;24.25;;;;;;;;;;5037049;28;20474;-82
2024/02/29 04:42:37;;;;;;;33.25;23.83;;;;;;;;;;5037119;28;20886;-82
2024/02/29 04:45:03;;;;;;;35.97;24.45;;;;;;;;;;5036592;28;20398;-81
2024/02/29 04:47:29;;;;;;;34.03;22.73;;;;;;;;;;5037792;28;21076;-81
2024/02/29 04:49:55;;;;;;;32.42;22.60;;;;;;;;;;5038653;28;20403;-81
2024/02/29 04:52:22;;;;;;;34.72;22.85;;;;;;;;;;5038809;28;20394;-82
2024/02/29 04:54:48;;;;;;;33.78;22.67;;;;;;;;;;5056432;28;20386;-82
2024/02/29 04:57:14;;;;;;;36.50;23.42;;;;;;;;;;5052572;28;20878;-82
2024/02/29 04:59:40;;;;;;;35.27;23.80;;;;;;;;;;5036912;28;20388;-82
2024/02/29 05:02:09;;;;;;;34.33;23.60;;;;;;;;;;5036440;28;20391;-82
2024/02/29 05:04:35;;;;;;;34.28;23.63;;;;;;;;;;5036357;28;20412;-81
2024/02/29 05:07:00;;;;;;;31.48;22.88;;;;;;;;;;5036924;28;20388;-81
2024/02/29 05:09:27;;;;;;;34.33;23.17;;;;;;;;;;5036708;28;20379;-81
2024/02/29 05:11:53;;;;;;;33.13;22.63;;;;;;;;;;5036511;28;20419;-82
2024/02/29 05:14:20;;;;;;;30.63;21.83;;;;;;;;;;5036444;28;20707;-81
2024/02/29 05:16:46;;;;;;;31.38;22.10;;;;;;;;;;5036239;28;20783;-81
2024/02/29 05:19:12;;;;;;;34.28;22.58;;;;;;;;;;5035795;28;20800;-82
2024/02/29 05:21:38;;;;;;;34.60;22.90;;;;;;;;;;5036319;28;20402;-81
2024/02/29 05:24:04;;;;;;;32.63;22.17;;;;;;;;;;5036382;28;20411;-82
2024/02/29 05:26:30;;;;;;;29.35;21.15;;;;;;;;;;5036055;28;20391;-82
2024/02/29 05:28:56;;;;;;;30.40;22.05;;;;;;;;;;5036488;28;20375;-81
2024/02/29 05:31:22;;;;;;;31.40;22.13;;;;;;;;;;5035658;28;20976;-82
2024/02/29 05:33:48;;;;;;;32.75;22.38;;;;;;;;;;5036225;28;20478;-82
2024/02/29 05:36:15;;;;;;;34.22;22.15;;;;;;;;;;5036061;28;20853;-82
2024/02/29 05:38:41;;;;;;;36.00;22.37;;;;;;;;;;5035525;28;20407;-82
2024/02/29 05:41:07;;;;;;;31.98;22.20;;;;;;;;;;5035944;28;20386;-81
2024/02/29 05:43:34;;;;;;;31.52;22.08;;;;;;;;;;5036132;28;20391;-82
2024/02/29 05:46:00;;;;;;;31.05;21.85;;;;;;;;;;5035710;28;20382;-81
2024/02/29 05:48:26;;;;;;;31.33;21.63;;;;;;;;;;5035687;28;20407;-82
2024/02/29 05:50:52;;;;;;;34.45;22.65;;;;;;;;;;5036010;28;20497;-82
2024/02/29 05:53:18;;;;;;;51.92;28.58;;;;;;;;;;5035898;28;20379;-82
2024/02/29 05:55:44;;;;;;;43.05;25.60;;;;;;;;;;5036136;28;20385;-82
2024/02/29 05:58:10;;;;;;;39.95;24.42;;;;;;;;;;5035263;28;20498;-81
2024/02/29 06:00:36;;;;;;;31.65;21.85;;;;;;;;;;5035609;28;20383;-82
2024/02/29 06:03:02;;;;;;;31.15;21.88;;;;;;;;;;5035877;28;20461;-81
2024/02/29 06:05:29;;;;;;;31.55;21.48;;;;;;;;;;5042321;28;20735;-81
2024/02/29 06:07:56;;;;;;;30.42;21.08;;;;;;;;;;5055257;28;20907;-82
2024/02/29 06:10:22;;;;;;;32.28;21.30;;;;;;;;;;5055895;28;20409;-81
2024/02/29 06:12:48;;;;;;;30.27;21.42;;;;;;;;;;5055623;28;20814;-81
2024/02/29 06:15:14;;;;;;;30.55;21.38;;;;;;;;;;5055794;28;20377;-82
2024/02/29 06:17:40;;;;;;;30.52;21.23;;;;;;;;;;5055319;28;20891;-81
2024/02/29 06:20:11;;;;;;;28.93;21.00;;;;;;;;;;5055208;28;20511;-82
2024/02/29 06:22:39;;;;;;;34.00;21.77;;;;;;;;;;5055527;28;20405;-82
2024/02/29 06:25:05;;;;;;;30.85;21.92;;;;;;;;;;5058749;28;20391;-82
2024/02/29 06:27:31;;;;;;;30.55;21.15;;;;;;;;;;5059564;28;20405;-82
2024/02/29 06:29:57;;;;;;;27.77;20.80;;;;;;;;;;5059695;28;20881;-82
2024/02/29 06:32:23;;;;;;;30.47;21.27;;;;;;;;;;5058027;28;20436;-81
2024/02/29 06:34:49;;;;;;;31.08;20.30;;;;;;;;;;5059599;28;20747;-82
2024/02/29 06:37:16;;;;;;;28.10;20.70;;;;;;;;;;5059627;28;20402;-81
2024/02/29 06:39:42;;;;;;;30.05;20.45;;;;;;;;;;5059638;28;20393;-81
2024/02/29 06:42:08;;;;;;;28.42;20.25;;;;;;;;;;5048746;28;20395;-81
2024/02/29 06:44:34;;;;;;;31.23;21.07;;;;;;;;;;5039599;28;20390;-82
2024/02/29 06:47:00;;;;;;;28.65;20.63;;;;;;;;;;5039134;28;20385;-82
2024/02/29 06:49:26;;;;;;;29.27;20.70;;;;;;;;;;5038963;28;20873;-82
2024/02/29 06:51:52;;;;;;;29.88;20.45;;;;;;;;;;5039668;28;20872;-82
2024/02/29 06:54:18;;;;;;;32.70;22.33;;;;;;;;;;5039140;28;20386;-82
2024/02/29 06:56:45;;;;;;;33.80;22.38;;;;;;;;;;5039419;28;20706;-82
2024/02/29 06:59:11;;;;;;;30.88;21.35;;;;;;;;;;5039146;28;20411;-82
2024/02/29 07:01:37;;;;;;;29.02;21.58;;;;;;;;;;5038780;28;20841;-82
2024/02/29 07:04:04;;;;;;;31.43;21.47;;;;;;;;;;5039582;28;20386;-81
2024/02/29 07:06:30;;;;;;;29.35;21.02;;;;;;;;;;5037816;28;20391;-81
2024/02/29 07:08:56;;;;;;;33.08;21.85;;;;;;;;;;5039160;28;20387;-82
2024/02/29 07:11:22;;;;;;;28.83;20.92;;;;;;;;;;5039390;28;20395;-82
2024/02/29 07:13:48;;;;;;;31.30;22.05;;;;;;;;;;5039341;28;20387;-81
2024/02/29 07:16:14;;;;;;;34.35;21.85;;;;;;;;;;5038888;28;20407;-82
2024/02/29 07:18:40;;;;;;;32.88;22.13;;;;;;;;;;5038504;28;20785;-82
2024/02/29 07:21:06;;;;;;;33.03;21.95;;;;;;;;;;5038672;28;20418;-82
2024/02/29 07:23:32;;;;;;;32.47;21.60;;;;;;;;;;5037178;28;20399;-81
2024/02/29 07:26:02;;;;;;;30.83;20.77;;;;;;;;;;5038721;28;20444;-82
2024/02/29 07:28:28;;;;;;;32.40;21.67;;;;;;;;;;5038812;28;20722;-81
2024/02/29 07:30:54;;;;;;;33.55;22.35;;;;;;;;;;5038198;28;20391;-82
2024/02/29 07:33:20;;;;;;;27.95;21.20;;;;;;;;;;5038627;28;20418;-82
2024/02/29 07:35:46;;;;;;;30.92;21.63;;;;;;;;;;5038341;28;20383;-82
2024/02/29 07:38:12;;;;;;;30.52;20.77;;;;;;;;;;5038846;28;20407;-82
2024/02/29 07:40:38;;;;;;;29.30;19.97;;;;;;;;;;5038818;28;20883;-82
2024/02/29 07:43:05;;;;;;;30.63;21.95;;;;;;;;;;5038760;28;20463;-82
2024/02/29 07:45:31;;;;;;;27.77;21.10;;;;;;;;;;5053169;28;20377;-82
2024/02/29 07:47:57;;;;;;;30.15;21.17;;;;;;;;;;5056812;28;21006;-81
2024/02/29 07:50:23;;;;;;;31.35;21.60;;;;;;;;;;5056602;28;20385;-82
2024/02/29 07:52:49;;;;;;;31.00;21.25;;;;;;;;;;5056747;28;20515;-81
2024/02/29 07:55:16;;;;;;;34.13;21.90;;;;;;;;;;5057317;28;20385;-82
2024/02/29 07:57:43;;;;;;;30.37;21.47;;;;;;;;;;5057188;28;20413;-81
2024/02/29 08:00:12;;;;;;;31.02;21.48;;;;;;;;;;5056559;28;20382;-82
2024/02/29 08:02:46;;;;;;;31.83;21.63;;;;;;;;;;5057988;28;20757;-81
2024/02/29 08:05:12;;;;;;;29.75;21.20;;;;;;;;;;5037360;28;20394;-81
2024/02/29 08:07:38;;;;;;;31.10;21.95;;;;;;;;;;5037529;28;20387;-81
2024/02/29 08:10:05;;;;;;;31.33;21.95;;;;;;;;;;5056005;28;20405;-82
2024/02/29 08:12:31;;;;;;;31.23;21.92;;;;;;;;;;5057875;28;20389;-81
2024/02/29 08:14:57;;;;;;;29.98;21.42;;;;;;;;;;5057906;28;20509;-81
2024/02/29 08:17:27;;;;;;;34.25;22.77;;;;;;;;;;5055904;28;20422;-82
2024/02/29 08:19:53;;;;;;;33.38;23.23;;;;;;;;;;5057132;28;20382;-82
2024/02/29 08:22:19;;;;;;;34.45;23.30;;;;;;;;;;5057430;28;20374;-82
2024/02/29 08:24:45;;;;;;;35.63;23.80;;;;;;;;;;5057161;28;20381;-83
2024/02/29 08:27:10;;;;;;;35.08;23.88;;;;;;;;;;5057213;28;20381;-82
2024/02/29 08:29:36;;;;;;;35.50;24.25;;;;;;;;;;5056885;28;21230;-81
2024/02/29 08:32:02;;;;;;;35.75;24.30;;;;;;;;;;5054426;28;20413;-81
2024/02/29 08:34:29;;;;;;;38.20;25.55;;;;;;;;;;5056953;28;20431;-82
2024/02/29 08:36:56;;;;;;;43.67;27.63;;;;;;;;;;5056731;28;20374;-81
2024/02/29 08:39:22;;;;;;;44.10;28.97;;;;;;;;;;5057202;28;20385;-82
2024/02/29 08:41:48;;;;;;;44.72;28.75;;;;;;;;;;5056937;28;20374;-81
2024/02/29 08:44:15;;;;;;;56.22;35.08;;;;;;;;;;5057204;28;20794;-82
2024/02/29 08:46:42;;;;;;;51.15;31.85;;;;;;;;;;5055927;28;20571;-82
2024/02/29 08:49:08;;;;;;;50.17;32.10;;;;;;;;;;5056157;28;20405;-82
2024/02/29 08:51:34;;;;;;;44.55;30.00;;;;;;;;;;5057380;28;20431;-82
2024/02/29 08:54:00;;;;;;;49.67;31.42;;;;;;;;;;5057169;28;20401;-82
2024/02/29 08:56:27;;;;;;;45.97;29.17;;;;;;;;;;5056408;28;20378;-82
2024/02/29 08:58:53;;;;;;;44.72;28.98;;;;;;;;;;5056342;28;20463;-82
2024/02/29 09:01:22;;;;;;;41.58;27.92;;;;;;;;;;5056398;28;20393;-82
2024/02/29 09:03:48;;;;;;;42.85;27.63;;;;;;;;;;5053651;28;20844;-81
2024/02/29 09:06:14;;;;;;;43.50;28.17;;;;;;;;;;5054995;28;20386;-82
2024/02/29 09:08:40;;;;;;;46.55;28.55;;;;;;;;;;5055479;28;20386;-82
2024/02/29 09:11:06;;;;;;;42.05;27.48;;;;;;;;;;5055594;28;20382;-81
2024/02/29 09:13:32;;;;;;;41.55;27.33;;;;;;;;;;5055917;28;20396;-82
2024/02/29 09:15:58;;;;;;;46.03;29.42;;;;;;;;;;5055682;28;20384;-81
2024/02/29 09:18:25;;;;;;;44.60;27.92;;;;;;;;;;5055103;28;20413;-81
2024/02/29 09:20:51;;;;;;;43.75;28.92;;;;;;;;;;5055354;28;20388;-82
2024/02/29 09:23:18;;;;;;;43.03;28.15;;;;;;;;;;5056134;28;20420;-81
2024/02/29 09:25:44;;;;;;;41.35;26.73;;;;;;;;;;5055816;28;20756;-82
2024/02/29 09:28:10;;;;;;;43.47;27.73;;;;;;;;;;5056562;28;20477;-82
2024/02/29 09:30:36;;;;;;;42.57;27.67;;;;;;;;;;5055682;28;20413;-82
2024/02/29 09:33:02;;;;;;;39.78;26.92;;;;;;;;;;5056049;28;20393;-81
2024/02/29 09:35:28;;;;;;;40.88;26.52;;;;;;;;;;5054872;28;20393;-81
2024/02/29 09:37:54;;;;;;;42.63;26.93;;;;;;;;;;5055649;28;20401;-81
2024/02/29 09:40:20;;;;;;;40.92;27.05;;;;;;;;;;5055669;28;20740;-82
2024/02/29 09:42:47;;;;;;;42.00;26.63;;;;;;;;;;5055591;28;20382;-81
2024/02/29 09:45:14;;;;;;;41.45;27.15;;;;;;;;;;5055448;28;20878;-82
2024/02/29 09:47:41;;;;;;;41.25;26.58;;;;;;;;;;5054751;28;20388;-81
2024/02/29 09:50:08;;;;;;;42.67;27.15;;;;;;;;;;5054799;28;20389;-81
2024/02/29 09:52:38;;;;;;;39.30;26.27;;;;;;;;;;5055291;28;20373;-82
2024/02/29 09:55:05;;;;;;;41.20;26.55;;;;;;;;;;5055494;28;20388;-82
2024/02/29 09:57:36;;;;;;;41.78;27.85;;;;;;;;;;5055134;28;20409;-82
2024/02/29 10:00:02;;;;;;;41.85;27.25;;;;;;;;;;5054949;28;20990;-81
2024/02/29 10:02:28;;;;;;;39.55;26.27;;;;;;;;;;5055530;28;20864;-81
2024/02/29 10:04:55;;;;;;;40.83;27.77;;;;;;;;;;5053938;28;20381;-81
2024/02/29 10:07:20;;;;;;;43.63;28.50;;;;;;;;;;5054117;28;20385;-82
2024/02/29 10:09:47;;;;;;;41.40;26.58;;;;;;;;;;5054292;28;20392;-82
2024/02/29 10:12:20;;;;;;;37.70;25.38;;;;;;;;;;5055433;28;20374;-82
2024/02/29 10:14:46;;;;;;;41.55;27.35;;;;;;;;;;5054888;28;20391;-81
2024/02/29 10:17:12;;;;;;;40.25;26.60;;;;;;;;;;5054876;28;20476;-81
2024/02/29 10:19:38;;;;;;;39.03;25.92;;;;;;;;;;5054739;28;20378;-82
2024/02/29 10:22:06;;;;;;;41.20;26.73;;;;;;;;;;5056102;28;20803;-82
2024/02/29 10:24:32;;;;;;;37.95;25.42;;;;;;;;;;5055202;28;20385;-82
2024/02/29 10:27:02;;;;;;;42.00;26.25;;;;;;;;;;5053162;28;20400;-81
2024/02/29 10:29:29;;;;;;;40.38;26.05;;;;;;;;;;5054840;28;20378;-82
2024/02/29 10:31:57;;;;;;;40.83;25.95;;;;;;;;;;5054452;28;20388;-81
2024/02/29 10:34:23;;;;;;;41.15;25.48;;;;;;;;;;5055776;28;20405;-82
2024/02/29 10:36:49;;;;;;;37.63;25.77;;;;;;;;;;5055326;28;20378;-81
2024/02/29 10:39:15;;;;;;;41.58;26.33;;;;;;;;;;5055048;28;20428;-81
2024/02/29 10:41:45;;;;;;;37.45;24.77;;;;;;;;;;5055314;28;20712;-81
2024/02/29 10:44:11;;;;;;;34.00;22.85;;;;;;;;;;5055102;28;20443;-82
2024/02/29 10:46:38;;;;;;;35.10;23.70;;;;;;;;;;5055135;28;20374;-82
2024/02/29 10:49:10;;;;;;;36.93;24.77;;;;;;;;;;5055079;28;20401;-82
2024/02/29 10:51:47;;;;;;;36.70;25.08;;;;;;;;;;5055495;28;20773;-82
2024/02/29 10:54:19;;;;;;;35.15;24.00;;;;;;;;;;5055500;28;20378;-82
2024/02/29 10:56:49;;;;;;;37.33;25.05;;;;;;;;;;5055028;28;20424;-81
2024/02/29 10:59:19;;;;;;;38.65;25.38;;;;;;;;;;5055070;28;20894;-81
2024/02/29 11:01:46;;;;;;;36.58;24.23;;;;;;;;;;5054546;28;20425;-82
2024/02/29 11:04:12;;;;;;;32.90;22.88;;;;;;;;;;5055778;28;20416;-82
2024/02/29 11:06:42;;;;;;;31.93;22.27;;;;;;;;;;5055333;28;20396;-82
2024/02/29 11:09:09;;;;;;;33.97;22.25;;;;;;;;;;5054845;28;20393;-81
2024/02/29 11:11:35;;;;;;;31.92;22.30;;;;;;;;;;5057567;28;20381;-82
2024/02/29 11:14:02;;;;;;;31.70;21.13;;;;;;;;;;5058554;28;20459;-81
2024/02/29 11:16:28;;;;;;;30.17;20.90;;;;;;;;;;5059155;28;20405;-81
2024/02/29 11:19:03;;;;;;;32.80;21.77;;;;;;;;;;5058226;28;20732;-81
2024/02/29 11:21:30;;;;;;;27.92;19.83;;;;;;;;;;5058579;28;20385;-82
2024/02/29 11:24:01;;;;;;;26.30;18.52;;;;;;;;;;5059349;28;20408;-82
2024/02/29 11:26:28;;;;;;;27.80;20.10;;;;;;;;;;5059962;28;20464;-82
2024/02/29 11:28:54;;;;;;;26.73;18.23;;;;;;;;;;5059217;28;20782;-82
2024/02/29 11:31:20;;;;;;;29.65;19.73;;;;;;;;;;5059284;28;20416;-82
2024/02/29 11:33:46;;;;;;;26.33;18.30;;;;;;;;;;5058117;28;20393;-82
2024/02/29 11:36:13;;;;;;;21.23;15.57;;;;;;;;;;5057987;28;20396;-82
2024/02/29 11:38:39;;;;;;;24.80;16.05;;;;;;;;;;5057718;28;20428;-81
2024/02/29 11:41:18;;;;;;;26.90;17.83;;;;;;;;;;5057909;28;20381;-82
2024/02/29 11:43:44;;;;;;;26.33;17.88;;;;;;;;;;5058278;28;20389;-82
2024/02/29 11:46:10;;;;;;;24.27;16.77;;;;;;;;;;5058549;28;20929;-81
2024/02/29 11:48:37;;;;;;;26.27;16.25;;;;;;;;;;5057226;28;20405;-82
2024/02/29 11:51:03;;;;;;;26.47;16.77;;;;;;;;;;5056976;28;20395;-81
2024/02/29 11:53:32;;;;;;;22.48;15.95;;;;;;;;;;5056247;28;20397;-80
2024/02/29 11:55:59;;;;;;;26.58;16.95;;;;;;;;;;5056439;28;20413;-80
2024/02/29 11:58:25;;;;;;;25.15;15.85;;;;;;;;;;5057727;28;20409;-79
2024/02/29 12:00:51;;;;;;;23.67;15.50;;;;;;;;;;5057342;28;20856;-80
2024/02/29 12:03:17;;;;;;;25.10;17.40;;;;;;;;;;5057424;28;20389;-80
2024/02/29 12:05:43;;;;;;;26.50;18.00;;;;;;;;;;5057573;28;20384;-79
2024/02/29 12:08:09;;;;;;;25.30;17.65;;;;;;;;;;5055725;28;20374;-80
2024/02/29 12:10:36;;;;;;;27.77;18.40;;;;;;;;;;5058183;28;20453;-80
2024/02/29 12:13:02;;;;;;;27.58;18.02;;;;;;;;;;5058516;28;20435;-80
2024/02/29 12:15:28;;;;;;;26.65;17.50;;;;;;;;;;5057814;28;20388;-80
2024/02/29 12:17:54;;;;;;;27.15;17.55;;;;;;;;;;5057425;28;20932;-80
2024/02/29 12:20:20;;;;;;;28.75;19.30;;;;;;;;;;5057512;28;20460;-81
2024/02/29 12:22:48;;;;;;;30.52;19.02;;;;;;;;;;5056719;28;20381;-80
2024/02/29 12:25:15;;;;;;;29.75;18.80;;;;;;;;;;5057373;28;20382;-81
2024/02/29 12:27:41;;;;;;;27.83;19.08;;;;;;;;;;5053751;28;20866;-81
2024/02/29 12:30:11;;;;;;;27.58;18.40;;;;;;;;;;5056912;28;20381;-80
2024/02/29 12:32:37;;;;;;;27.25;18.25;;;;;;;;;;5057205;28;20883;-80
2024/02/29 12:35:04;;;;;;;26.17;17.97;;;;;;;;;;5057047;28;20382;-82
2024/02/29 12:37:30;;;;;;;28.83;19.33;;;;;;;;;;5057203;28;20942;-81
2024/02/29 12:39:56;;;;;;;29.45;19.88;;;;;;;;;;5057360;28;20455;-82
2024/02/29 12:42:22;;;;;;;30.38;20.63;;;;;;;;;;5057551;28;20377;-81
2024/02/29 12:44:49;;;;;;;30.13;19.65;;;;;;;;;;5057222;28;20396;-82
2024/02/29 12:47:15;;;;;;;31.17;20.00;;;;;;;;;;5056967;28;20372;-80
2024/02/29 12:49:41;;;;;;;31.50;20.67;;;;;;;;;;5056967;28;20428;-82
2024/02/29 12:52:07;;;;;;;30.20;20.17;;;;;;;;;;5057775;28;20427;-81
2024/02/29 12:54:34;;;;;;;27.10;18.52;;;;;;;;;;5056571;28;20879;-80
2024/02/29 12:57:00;;;;;;;29.63;20.00;;;;;;;;;;5056734;28;20381;-82
2024/02/29 12:59:26;;;;;;;30.75;19.70;;;;;;;;;;5056966;28;20459;-82
2024/02/29 13:01:53;;;;;;;33.45;20.70;;;;;;;;;;5056551;28;20849;-82
2024/02/29 13:04:19;;;;;;;31.52;20.20;;;;;;;;;;5056894;28;20392;-82
2024/02/29 13:06:45;;;;;;;30.40;19.67;;;;;;;;;;5056487;28;20429;-81
2024/02/29 13:09:12;;;;;;;32.53;20.55;;;;;;;;;;5056931;28;20413;-81
2024/02/29 13:11:38;;;;;;;30.42;20.25;;;;;;;;;;5057068;28;20381;-81
2024/02/29 13:14:04;;;;;;;31.35;20.65;;;;;;;;;;5056443;28;20435;-80
2024/02/29 13:16:30;;;;;;;31.25;20.23;;;;;;;;;;5056335;28;20378;-81
2024/02/29 13:18:56;;;;;;;28.83;18.83;;;;;;;;;;5056356;28;20467;-81
2024/02/29 13:21:22;;;;;;;31.13;19.33;;;;;;;;;;5056568;28;20377;-81
2024/02/29 13:23:48;;;;;;;31.00;20.02;;;;;;;;;;5056023;28;20387;-81
2024/02/29 13:26:15;;;;;;;31.08;19.92;;;;;;;;;;5056471;28;20443;-81
2024/02/29 13:28:41;;;;;;;27.80;19.52;;;;;;;;;;5055990;28;20377;-81
2024/02/29 13:31:08;;;;;;;27.95;18.77;;;;;;;;;;5055671;28;20464;-81
2024/02/29 13:33:34;;;;;;;29.27;20.30;;;;;;;;;;5056076;28;20831;-80
2024/02/29 13:36:00;;;;;;;31.90;20.00;;;;;;;;;;5056129;28;20475;-81
2024/02/29 13:38:26;;;;;;;30.70;20.20;;;;;;;;;;5056022;28;20515;-81
2024/02/29 13:40:52;;;;;;;30.05;19.15;;;;;;;;;;5055800;28;20384;-80
2024/02/29 13:43:18;;;;;;;30.45;20.17;;;;;;;;;;5056044;28;20487;-80
2024/02/29 13:45:44;;;;;;;31.08;20.10;;;;;;;;;;5055795;28;20374;-81
2024/02/29 13:48:11;;;;;;;34.35;21.13;;;;;;;;;;5055670;28;20400;-80
2024/02/29 13:50:38;;;;;;;31.63;20.52;;;;;;;;;;5055273;28;20377;-80
2024/02/29 13:53:04;;;;;;;36.53;21.20;;;;;;;;;;5056220;28;20377;-80
2024/02/29 13:55:30;;;;;;;32.08;20.98;;;;;;;;;;5055460;28;20383;-82
2024/02/29 13:57:56;;;;;;;33.63;21.10;;;;;;;;;;5055199;28;20409;-82
2024/02/29 14:00:22;;;;;;;30.80;20.38;;;;;;;;;;5055882;28;20382;-81
2024/02/29 14:02:48;;;;;;;36.33;21.48;;;;;;;;;;5056062;28;20409;-82
2024/02/29 14:05:15;;;;;;;35.70;22.30;;;;;;;;;;5055566;28;20385;-80
2024/02/29 14:07:41;;;;;;;33.58;20.85;;;;;;;;;;5055570;28;20469;-81
2024/02/29 14:10:07;;;;;;;35.77;22.07;;;;;;;;;;5056291;28;20473;-81
2024/02/29 14:12:34;;;;;;;34.17;22.13;;;;;;;;;;5055680;28;20435;-81